createdAt,value
2022-12-23T00:00:46.342Z,69.30
2022-12-23T00:03:25.393Z,64.80
2022-12-23T00:05:53.531Z,69.30
2022-12-23T00:08:21.893Z,68.00
2022-12-23T00:10:51.300Z,72.60
2022-12-23T00:13:37.879Z,75.70
2022-12-23T00:16:07.055Z,82.20
2022-12-23T00:18:34.786Z,74.30
2022-12-23T00:21:08.793Z,69.50
2022-12-23T00:23:39.574Z,70.50
2022-12-23T00:26:08.184Z,65.90
2022-12-23T00:28:35.804Z,68.60
2022-12-23T00:31:05.563Z,70.20
2022-12-23T00:33:36.690Z,68.90
2022-12-23T00:36:18.567Z,66.10
2022-12-23T00:39:05.295Z,64.20
2022-12-23T00:41:52.377Z,72.50
2022-12-23T00:44:20.221Z,59.90
2022-12-23T00:46:48.238Z,60.30
2022-12-23T00:49:36.028Z,67.30
2022-12-23T00:52:05.065Z,63.20
2022-12-23T00:54:32.857Z,65.00
2022-12-23T00:57:01.202Z,67.30
2022-12-23T00:59:28.966Z,63.70
2022-12-23T01:02:15.625Z,62.90
2022-12-23T01:05:02.155Z,66.50
2022-12-23T01:07:29.916Z,67.40
2022-12-23T01:09:57.622Z,68.70
2022-12-23T01:12:25.436Z,67.80
2022-12-23T01:14:53.119Z,67.20
2022-12-23T01:17:20.985Z,67.50
2022-12-23T01:19:48.949Z,62.10
2022-12-23T01:22:16.768Z,66.00
2022-12-23T01:24:44.445Z,60.30
2022-12-23T01:27:12.211Z,57.60
2022-12-23T01:29:39.815Z,47.60
2022-12-23T01:32:07.628Z,51.40
2022-12-23T01:34:37.590Z,46.80
2022-12-23T01:37:05.644Z,50.40
2022-12-23T01:39:33.359Z,53.00
2022-12-23T01:42:19.804Z,54.30
2022-12-23T01:44:50.549Z,55.00
2022-12-23T01:47:30.238Z,51.80
2022-12-23T01:50:05.307Z,51.90
2022-12-23T01:52:36.412Z,50.10
2022-12-23T01:55:04.293Z,50.70
2022-12-23T01:57:32.096Z,43.90
2022-12-23T02:00:18.592Z,48.90
2022-12-23T02:03:05.574Z,46.30
2022-12-23T02:05:34.593Z,45.20
2022-12-23T02:08:21.515Z,42.10
2022-12-23T02:10:52.234Z,46.30
2022-12-23T02:13:31.644Z,41.80
2022-12-23T02:16:17.782Z,40.20
2022-12-23T02:19:10.416Z,42.60
2022-12-23T02:21:57.271Z,40.20
2022-12-23T02:25:04.948Z,38.70
2022-12-23T02:27:48.541Z,38.80
2022-12-23T02:30:27.271Z,37.90
2022-12-23T02:33:21.380Z,40.00
2022-12-23T02:36:08.182Z,39.30
2022-12-23T02:39:18.818Z,39.80
2022-12-23T02:42:09.246Z,40.80
2022-12-23T02:45:00.971Z,41.90
2022-12-23T02:48:00.120Z,43.20
2022-12-23T02:50:30.647Z,44.80
2022-12-23T02:53:01.858Z,46.10
2022-12-23T02:55:33.598Z,44.30
2022-12-23T02:58:05.154Z,46.20
2022-12-23T03:00:33.158Z,47.50
2022-12-23T03:03:01.082Z,42.80
2022-12-23T03:05:34.059Z,42.00
2022-12-23T03:08:04.246Z,41.70
2022-12-23T03:11:02.714Z,42.50
2022-12-23T03:13:39.539Z,40.60
2022-12-23T03:16:24.342Z,41.80
2022-12-23T03:19:21.018Z,40.60
2022-12-23T03:22:14.814Z,39.90
2022-12-23T03:24:52.845Z,40.00
2022-12-23T03:27:49.994Z,40.30
2022-12-23T03:30:19.130Z,40.30
2022-12-23T03:33:00.410Z,43.10
2022-12-23T03:35:34.223Z,42.60
2022-12-23T03:38:03.185Z,42.00
2022-12-23T03:40:36.971Z,42.60
2022-12-23T03:43:09.045Z,43.00
2022-12-23T03:45:43.711Z,43.20
2022-12-23T03:48:24.330Z,45.00
2022-12-23T03:50:55.977Z,43.50
2022-12-23T03:53:27.674Z,42.50
2022-12-23T03:55:59.376Z,43.80
2022-12-23T03:58:42.248Z,44.80
2022-12-23T04:01:12.048Z,42.80
2022-12-23T04:04:01.709Z,45.70
2022-12-23T04:06:35.023Z,46.30
2022-12-23T04:09:03.333Z,43.00
2022-12-23T04:11:31.122Z,44.90
2022-12-23T04:13:58.822Z,47.00
2022-12-23T04:16:27.549Z,50.70
2022-12-23T04:18:55.798Z,49.40
2022-12-23T04:21:23.461Z,51.10
2022-12-23T04:23:51.472Z,51.30
2022-12-23T04:26:19.096Z,52.60
2022-12-23T04:28:46.743Z,51.10
2022-12-23T04:31:14.441Z,51.60
2022-12-23T04:33:42.162Z,51.40
2022-12-23T04:36:09.816Z,49.30
2022-12-23T04:38:37.469Z,48.10
2022-12-23T04:41:05.130Z,49.10
2022-12-23T04:43:32.874Z,47.30
2022-12-23T04:46:00.564Z,46.60
2022-12-23T04:48:28.227Z,48.90
2022-12-23T04:50:55.881Z,47.10
2022-12-23T04:53:23.537Z,48.10
2022-12-23T04:55:51.905Z,49.90
2022-12-23T04:58:22.171Z,48.20
2022-12-23T05:00:49.986Z,52.90
2022-12-23T05:03:18.126Z,49.50
2022-12-23T05:05:46.113Z,47.20
2022-12-23T05:08:13.762Z,48.30
2022-12-23T05:10:41.441Z,44.60
2022-12-23T05:13:09.058Z,43.50
2022-12-23T05:15:36.700Z,43.30
2022-12-23T05:18:04.594Z,43.30
2022-12-23T05:20:32.270Z,42.10
2022-12-23T05:22:59.943Z,43.20
2022-12-23T05:25:27.609Z,43.10
2022-12-23T05:27:55.338Z,43.40
2022-12-23T05:30:22.980Z,46.10
2022-12-23T05:32:54.482Z,48.00
2022-12-23T05:35:23.330Z,52.60
2022-12-23T05:37:51.713Z,47.50
2022-12-23T05:40:23.695Z,50.30
2022-12-23T05:42:53.262Z,51.60
2022-12-23T05:45:21.280Z,51.60
2022-12-23T05:47:48.919Z,50.80
2022-12-23T05:50:16.682Z,52.40
2022-12-23T05:52:44.282Z,52.80
2022-12-23T05:55:11.918Z,52.00
2022-12-23T05:57:39.565Z,53.00
2022-12-23T06:00:08.023Z,51.70
2022-12-23T06:02:40.916Z,52.50
2022-12-23T06:05:09.341Z,50.20
2022-12-23T06:07:37.998Z,54.70
2022-12-23T06:10:07.246Z,55.10
2022-12-23T06:12:35.347Z,54.90
2022-12-23T06:15:04.256Z,53.20
2022-12-23T06:17:31.994Z,59.70
2022-12-23T06:20:00.017Z,59.80
2022-12-23T06:22:27.764Z,58.70
2022-12-23T06:24:55.443Z,63.80
2022-12-23T06:27:23.099Z,67.20
2022-12-23T06:29:50.778Z,63.90
2022-12-23T06:32:18.550Z,66.00
2022-12-23T06:34:46.908Z,67.80
2022-12-23T06:37:14.898Z,71.20
2022-12-23T06:39:42.541Z,72.00
2022-12-23T06:42:10.173Z,72.70
2022-12-23T06:44:37.807Z,71.70
2022-12-23T06:47:05.599Z,69.50
2022-12-23T06:49:33.300Z,67.20
2022-12-23T06:52:01.052Z,69.70
2022-12-23T06:54:28.655Z,65.20
2022-12-23T06:56:56.479Z,62.00
2022-12-23T06:59:24.228Z,65.70
2022-12-23T07:01:51.934Z,54.30
2022-12-23T07:04:19.691Z,56.80
2022-12-23T07:06:47.380Z,58.10
2022-12-23T07:09:15.439Z,54.20
2022-12-23T07:11:43.111Z,52.80
2022-12-23T07:14:11.624Z,52.80
2022-12-23T07:16:39.357Z,51.90
2022-12-23T07:19:07.091Z,57.70
2022-12-23T07:21:36.684Z,54.80
2022-12-23T07:24:05.327Z,49.80
2022-12-23T07:26:33.021Z,49.30
2022-12-23T07:29:01.650Z,47.80
2022-12-23T07:31:29.359Z,43.80
2022-12-23T07:33:57.026Z,41.90
2022-12-23T07:36:24.710Z,41.10
2022-12-23T07:38:52.387Z,39.20
2022-12-23T07:41:20.079Z,40.60
2022-12-23T07:43:47.815Z,38.00
2022-12-23T07:46:15.646Z,37.50
2022-12-23T07:48:43.409Z,37.40
2022-12-23T07:51:11.112Z,40.30
2022-12-23T07:53:38.811Z,35.20
2022-12-23T07:56:06.739Z,39.00
2022-12-23T07:58:34.411Z,36.90
2022-12-23T08:01:08.088Z,36.70
2022-12-23T08:03:36.764Z,34.80
2022-12-23T08:06:12.564Z,37.30
2022-12-23T08:08:41.351Z,36.30
2022-12-23T08:11:10.578Z,36.60
2022-12-23T08:13:40.643Z,36.70
2022-12-23T08:16:09.176Z,36.00
2022-12-23T08:18:39.030Z,41.30
2022-12-23T08:21:10.648Z,38.50
2022-12-23T08:23:38.300Z,40.00
2022-12-23T08:26:09.769Z,39.40
2022-12-23T08:28:38.464Z,39.70
2022-12-23T08:31:12.134Z,38.90
2022-12-23T08:33:42.151Z,55.00
2022-12-23T08:36:17.627Z,57.80
2022-12-23T08:38:51.935Z,48.10
2022-12-23T08:41:24.049Z,41.70
2022-12-23T08:43:52.007Z,40.10
2022-12-23T08:46:20.315Z,39.80
2022-12-23T08:48:49.654Z,42.70
2022-12-23T08:51:19.808Z,40.00
2022-12-23T08:53:47.605Z,45.20
2022-12-23T08:56:21.108Z,39.10
2022-12-23T08:58:51.140Z,40.40
2022-12-23T09:01:21.201Z,43.10
2022-12-23T09:03:49.052Z,40.10
2022-12-23T09:06:21.885Z,39.30
2022-12-23T09:08:52.650Z,43.70
2022-12-23T09:11:23.543Z,40.30
2022-12-23T09:13:51.367Z,39.00
2022-12-23T09:16:19.299Z,37.30
2022-12-23T09:18:47.101Z,39.20
2022-12-23T09:21:18.127Z,40.10
2022-12-23T09:23:46.563Z,38.90
2022-12-23T09:26:20.391Z,39.40
2022-12-23T09:28:48.148Z,38.10
2022-12-23T09:31:16.148Z,41.10
2022-12-23T09:33:47.200Z,38.60
2022-12-23T09:36:14.946Z,38.90
2022-12-23T09:38:42.863Z,40.20
2022-12-23T09:41:32.742Z,41.50
2022-12-23T09:44:24.322Z,40.40
2022-12-23T09:46:56.099Z,39.80
2022-12-23T09:49:24.041Z,41.10
2022-12-23T09:51:54.146Z,40.30
2022-12-23T09:54:28.952Z,40.60
2022-12-23T09:57:03.546Z,42.70
2022-12-23T09:59:52.122Z,39.70
2022-12-23T10:02:57.524Z,39.50
2022-12-23T10:05:32.658Z,37.80
2022-12-23T10:08:08.944Z,38.00
2022-12-23T10:10:52.884Z,39.00
2022-12-23T10:13:42.504Z,39.50
2022-12-23T10:16:18.611Z,38.70
2022-12-23T10:18:53.726Z,38.70
2022-12-23T10:21:47.117Z,38.10
2022-12-23T10:24:26.208Z,41.40
2022-12-23T10:26:57.156Z,39.00
2022-12-23T10:29:31.446Z,36.80
2022-12-23T10:32:05.326Z,37.30
2022-12-23T10:34:48.976Z,36.60
2022-12-23T10:37:29.279Z,36.70
2022-12-23T10:40:05.097Z,38.20
2022-12-23T10:42:42.341Z,36.50
2022-12-23T10:45:25.441Z,34.00
2022-12-23T10:48:06.065Z,35.70
2022-12-23T10:50:47.467Z,39.00
2022-12-23T10:53:40.463Z,34.40
2022-12-23T10:56:09.190Z,36.90
2022-12-23T10:58:40.568Z,36.60
2022-12-23T11:01:15.211Z,40.10
2022-12-23T11:04:02.495Z,33.30
2022-12-23T11:06:37.413Z,36.90
2022-12-23T11:09:06.686Z,35.50
2022-12-23T11:11:56.001Z,36.40
2022-12-23T11:14:42.199Z,43.00
2022-12-23T11:17:25.318Z,38.50
2022-12-23T11:20:12.422Z,37.40
2022-12-23T11:22:48.977Z,36.40
2022-12-23T11:25:32.392Z,36.60
2022-12-23T11:28:07.632Z,38.90
2022-12-23T11:30:38.878Z,36.80
2022-12-23T11:33:06.596Z,36.90
2022-12-23T11:35:36.606Z,41.60
2022-12-23T11:38:04.503Z,36.30
2022-12-23T11:40:36.192Z,41.10
2022-12-23T11:43:06.589Z,41.30
2022-12-23T11:45:36.807Z,39.30
2022-12-23T11:48:06.125Z,50.60
2022-12-23T11:50:36.198Z,67.70
2022-12-23T11:53:12.643Z,167.00
2022-12-23T11:55:46.925Z,136.60
2022-12-23T11:58:20.049Z,77.10
2022-12-23T12:00:56.143Z,46.70
2022-12-23T12:03:28.928Z,47.60
2022-12-23T12:05:59.996Z,36.90
2022-12-23T12:08:34.052Z,45.70
2022-12-23T12:11:05.946Z,58.40
2022-12-23T12:13:39.748Z,67.10
2022-12-23T12:16:26.604Z,56.80
2022-12-23T12:18:56.153Z,41.60
2022-12-23T12:21:28.397Z,45.00
2022-12-23T12:24:22.287Z,42.10
2022-12-23T12:26:52.962Z,54.90
2022-12-23T12:29:38.906Z,52.10
2022-12-23T12:32:30.336Z,37.10
2022-12-23T12:35:06.350Z,41.80
2022-12-23T12:37:41.808Z,41.30
2022-12-23T12:40:26.034Z,41.00
2022-12-23T12:43:19.486Z,38.60
2022-12-23T12:45:53.976Z,40.40
2022-12-23T12:49:01.347Z,56.00
2022-12-23T12:51:57.083Z,55.90
2022-12-23T12:54:24.781Z,53.70
2022-12-23T12:56:55.352Z,40.80
2022-12-23T12:59:28.479Z,46.70
2022-12-23T13:02:31.163Z,38.00
2022-12-23T13:05:12.739Z,41.20
2022-12-23T13:07:58.182Z,41.60
2022-12-23T13:10:57.997Z,40.30
2022-12-23T13:13:45.575Z,40.20
2022-12-23T13:16:16.388Z,44.30
2022-12-23T13:19:04.138Z,46.30
2022-12-23T13:21:39.409Z,46.50
2022-12-23T13:24:25.813Z,46.60
2022-12-23T13:27:06.658Z,47.50
2022-12-23T13:29:44.049Z,50.00
2022-12-23T13:32:26.872Z,43.70
2022-12-23T13:35:08.919Z,43.40
2022-12-23T13:37:50.362Z,48.10
2022-12-23T13:40:56.080Z,48.80
2022-12-23T13:43:25.449Z,53.40
2022-12-23T13:45:54.468Z,55.70
2022-12-23T13:49:10.439Z,52.50
2022-12-23T13:52:10.462Z,51.70
2022-12-23T13:54:50.604Z,61.00
2022-12-23T13:57:27.821Z,109.30
2022-12-23T14:00:18.545Z,129.10
2022-12-23T14:02:58.288Z,64.40
2022-12-23T14:05:36.746Z,111.40
2022-12-23T14:08:07.675Z,71.70
2022-12-23T14:10:35.616Z,89.70
2022-12-23T14:13:06.190Z,84.30
2022-12-23T14:16:31.243Z,89.20
2022-12-23T14:19:14.208Z,66.00
2022-12-23T14:22:07.424Z,81.60
2022-12-23T14:25:14.157Z,78.70
2022-12-23T14:28:16.073Z,85.30
2022-12-23T14:30:47.067Z,90.20
2022-12-23T14:33:25.921Z,86.20
2022-12-23T14:35:56.608Z,84.90
2022-12-23T14:38:26.735Z,69.80
2022-12-23T14:41:00.106Z,122.50
2022-12-23T14:43:31.652Z,89.90
2022-12-23T14:46:00.283Z,68.80
2022-12-23T14:48:33.848Z,69.90
2022-12-23T14:51:13.952Z,61.30
2022-12-23T14:53:59.723Z,59.00
2022-12-23T14:56:40.269Z,55.90
2022-12-23T14:59:09.046Z,56.90
2022-12-23T15:01:47.720Z,57.80
2022-12-23T15:04:27.875Z,64.60
2022-12-23T15:07:02.226Z,71.50
2022-12-23T15:09:38.879Z,83.30
2022-12-23T15:12:14.129Z,87.10
2022-12-23T15:14:46.151Z,92.20
2022-12-23T15:17:32.422Z,92.70
2022-12-23T15:20:13.193Z,88.90
2022-12-23T15:22:43.694Z,88.20
2022-12-23T15:25:30.681Z,86.20
2022-12-23T15:28:02.138Z,96.40
2022-12-23T15:30:34.169Z,93.50
2022-12-23T15:33:06.394Z,85.20
2022-12-23T15:35:45.831Z,90.00
2022-12-23T15:38:16.133Z,91.80
2022-12-23T15:40:44.458Z,91.40
2022-12-23T15:43:23.891Z,105.00
2022-12-23T15:45:52.563Z,119.40
2022-12-23T15:48:24.540Z,95.30
2022-12-23T15:50:55.851Z,110.10
2022-12-23T15:53:28.542Z,108.50
2022-12-23T15:55:56.267Z,108.00
2022-12-23T15:58:24.543Z,97.10
2022-12-23T16:00:58.040Z,97.80
2022-12-23T16:03:35.101Z,108.70
2022-12-23T16:06:16.238Z,107.20
2022-12-23T16:08:44.861Z,112.90
2022-12-23T16:11:15.783Z,115.70
2022-12-23T16:14:02.070Z,99.50
2022-12-23T16:16:33.216Z,109.50
2022-12-23T16:19:01.034Z,98.60
2022-12-23T16:21:32.204Z,105.10
2022-12-23T16:24:00.550Z,100.40
2022-12-23T16:26:28.598Z,102.50
2022-12-23T16:28:59.433Z,92.80
2022-12-23T16:31:27.380Z,104.70
2022-12-23T16:33:56.945Z,95.40
2022-12-23T16:36:27.871Z,102.20
2022-12-23T16:39:06.768Z,103.20
2022-12-23T16:41:35.020Z,117.50
2022-12-23T16:44:03.122Z,105.00
2022-12-23T16:46:37.320Z,124.70
2022-12-23T16:49:10.973Z,115.10
2022-12-23T16:51:39.216Z,121.30
2022-12-23T16:54:13.102Z,112.60
2022-12-23T16:56:41.446Z,120.40
2022-12-23T16:59:09.691Z,130.00
2022-12-23T17:01:40.270Z,122.50
2022-12-23T17:04:08.624Z,136.20
2022-12-23T17:06:37.398Z,131.30
2022-12-23T17:09:07.141Z,127.40
2022-12-23T17:11:37.874Z,132.50
2022-12-23T17:14:11.877Z,124.60
2022-12-23T17:16:41.385Z,138.30
2022-12-23T17:19:09.245Z,116.00
2022-12-23T17:21:38.974Z,115.20
2022-12-23T17:24:27.474Z,119.70
2022-12-23T17:26:56.981Z,103.60
2022-12-23T17:29:25.351Z,102.20
2022-12-23T17:31:53.183Z,102.40
2022-12-23T17:34:23.082Z,91.00
2022-12-23T17:36:51.576Z,88.00
2022-12-23T17:39:21.501Z,82.30
2022-12-23T17:41:49.401Z,73.80
2022-12-23T17:44:17.770Z,70.70
2022-12-23T17:46:46.487Z,67.00
2022-12-23T17:49:14.184Z,63.40
2022-12-23T17:51:42.480Z,57.80
2022-12-23T17:54:21.674Z,56.40
2022-12-23T17:56:50.033Z,50.50
2022-12-23T17:59:17.950Z,55.80
2022-12-23T18:01:45.809Z,55.70
2022-12-23T18:04:13.696Z,49.00
2022-12-23T18:06:41.434Z,58.20
2022-12-23T18:09:09.085Z,65.10
2022-12-23T18:11:41.205Z,61.70
2022-12-23T18:14:18.250Z,66.30
2022-12-23T18:16:46.539Z,71.10
2022-12-23T18:19:19.852Z,145.20
2022-12-23T18:21:47.818Z,77.30
2022-12-23T18:24:16.058Z,54.80
2022-12-23T18:26:44.778Z,52.90
2022-12-23T18:29:12.573Z,49.80
2022-12-23T18:31:50.512Z,55.00
2022-12-23T18:34:20.894Z,47.80
2022-12-23T18:36:48.932Z,52.30
2022-12-23T18:39:16.866Z,56.30
2022-12-23T18:41:44.497Z,48.30
2022-12-23T18:44:18.215Z,48.50
2022-12-23T18:46:46.529Z,47.60
2022-12-23T18:49:14.255Z,48.80
2022-12-23T18:51:41.871Z,53.90
2022-12-23T18:54:14.209Z,48.60
2022-12-23T18:56:42.633Z,49.80
2022-12-23T18:59:25.702Z,50.50
2022-12-23T19:01:57.559Z,47.70
2022-12-23T19:04:26.595Z,51.90
2022-12-23T19:06:55.730Z,70.80
2022-12-23T19:09:24.064Z,56.80
2022-12-23T19:11:52.855Z,56.40
2022-12-23T19:14:20.681Z,55.20
2022-12-23T19:16:51.860Z,74.30
2022-12-23T19:19:21.468Z,153.60
2022-12-23T19:21:49.218Z,241.70
2022-12-23T19:24:17.488Z,217.80
2022-12-23T19:26:45.234Z,223.40
2022-12-23T19:29:12.860Z,290.60
2022-12-23T19:31:40.829Z,65.90
2022-12-23T19:34:14.534Z,56.10
2022-12-23T19:36:44.059Z,60.10
2022-12-23T19:39:17.290Z,59.40
2022-12-23T19:41:45.643Z,56.90
2022-12-23T19:44:14.269Z,63.10
2022-12-23T19:46:42.244Z,66.00
2022-12-23T19:49:17.499Z,73.40
2022-12-23T19:51:48.451Z,99.90
2022-12-23T19:54:17.116Z,113.30
2022-12-23T19:56:44.922Z,106.70
2022-12-23T19:59:12.773Z,108.10
2022-12-23T20:01:40.492Z,97.20
2022-12-23T20:04:09.611Z,75.00
2022-12-23T20:06:38.353Z,94.50
2022-12-23T20:09:07.775Z,85.70
2022-12-23T20:11:38.072Z,65.40
2022-12-23T20:14:06.291Z,83.40
2022-12-23T20:16:34.326Z,88.50
2022-12-23T20:19:02.526Z,91.80
2022-12-23T20:21:30.406Z,83.90
2022-12-23T20:23:58.191Z,79.70
2022-12-23T20:26:27.265Z,84.70
2022-12-23T20:28:55.915Z,80.30
2022-12-23T20:31:28.543Z,85.00
2022-12-23T20:33:57.396Z,78.90
2022-12-23T20:36:29.422Z,87.20
2022-12-23T20:38:58.021Z,95.10
2022-12-23T20:41:27.846Z,96.70
2022-12-23T20:46:43.517Z,99.50
2022-12-23T20:49:11.366Z,103.20
2022-12-23T20:51:39.019Z,102.30
2022-12-23T20:54:06.757Z,111.10
2022-12-23T20:56:34.424Z,120.50
2022-12-23T20:59:03.838Z,120.10
2022-12-23T21:01:37.762Z,144.90
2022-12-23T21:04:08.239Z,119.30
2022-12-23T21:06:36.232Z,126.80
2022-12-23T21:09:06.721Z,117.70
2022-12-23T21:11:37.998Z,100.00
2022-12-23T21:14:07.605Z,140.80
2022-12-23T21:16:37.406Z,141.80
2022-12-23T21:19:07.451Z,134.30
2022-12-23T21:21:35.280Z,122.00
2022-12-23T21:24:04.483Z,112.50
2022-12-23T21:26:34.067Z,138.40
2022-12-23T21:29:03.879Z,212.10
2022-12-23T21:31:33.991Z,196.40
2022-12-23T21:34:01.895Z,165.90
2022-12-23T21:36:32.544Z,166.00
2022-12-23T21:39:00.633Z,154.20
2022-12-23T21:41:30.624Z,133.60
2022-12-23T21:44:00.133Z,126.00
2022-12-23T21:46:28.877Z,186.80
2022-12-23T21:48:57.675Z,142.80
2022-12-23T21:51:36.944Z,137.30
2022-12-23T21:54:08.560Z,154.50
2022-12-23T21:56:36.666Z,180.70
2022-12-23T21:59:07.131Z,173.90
2022-12-23T22:01:35.162Z,212.90
2022-12-23T22:04:02.930Z,195.30
2022-12-23T22:06:37.638Z,171.70
2022-12-23T22:09:06.502Z,126.40
2022-12-23T22:11:35.612Z,152.10
2022-12-23T22:14:05.100Z,208.20
2022-12-23T22:16:33.957Z,216.20
2022-12-23T22:19:02.834Z,151.60
2022-12-23T22:21:31.923Z,145.80
2022-12-23T22:23:59.972Z,138.00
2022-12-23T22:26:30.718Z,139.70
2022-12-23T22:29:00.308Z,125.80
2022-12-23T22:31:34.141Z,143.90
2022-12-23T22:34:02.171Z,146.40
2022-12-23T22:36:30.494Z,125.90
2022-12-23T22:39:00.029Z,180.90
2022-12-23T22:41:29.315Z,122.80
2022-12-23T22:43:57.718Z,142.00
2022-12-23T22:46:26.050Z,149.80
2022-12-23T22:48:54.597Z,124.50
2022-12-23T22:51:30.094Z,125.10
2022-12-23T22:53:58.280Z,129.20
2022-12-23T22:56:26.754Z,151.40
2022-12-23T22:58:55.189Z,153.60
2022-12-23T23:01:29.209Z,142.70
2022-12-23T23:03:58.570Z,148.80
2022-12-23T23:06:29.287Z,234.70
2022-12-23T23:08:57.959Z,157.80
2022-12-23T23:11:26.888Z,157.70
2022-12-23T23:13:55.561Z,149.80
2022-12-23T23:16:24.690Z,155.10
2022-12-23T23:18:53.035Z,160.70
2022-12-23T23:21:21.640Z,131.90
2022-12-23T23:23:49.949Z,144.10
2022-12-23T23:26:19.210Z,147.60
2022-12-23T23:28:47.053Z,171.50
2022-12-23T23:34:03.030Z,167.30
2022-12-23T23:36:30.888Z,233.80
2022-12-23T23:38:58.644Z,208.60
2022-12-23T23:41:26.349Z,257.60
2022-12-23T23:43:54.112Z,204.10
2022-12-23T23:46:21.927Z,147.40
2022-12-23T23:48:49.733Z,171.70
2022-12-23T23:51:17.469Z,191.30
2022-12-23T23:53:45.424Z,246.30
2022-12-23T23:56:13.339Z,207.90
2022-12-23T23:58:41.015Z,188.40
